• Join FlightAware (Why Join?)
  • Login
  • US Flag 
01:30AM EDT


 

Airport Tracker/Info


-or-


 

Live Flight TrackerFlight Track Log ✈ JBU41 ✈ 08-May-2013 ✈ KJFK - KMCO

Flight Track Log - Related Links

Times and Time Zones

All times are in EDT time to prevent confusion due to time zone crossing. See the JBU41 flight status page for this flight to view local times or setup timezone preferences in your user account.

Time Position Orientation Groundspeed Altitude Reporting Facility
EDT Latitude Longitude Course Direction KTS MPH feet Rate Location/Type
11:47AM 40.6500 -73.7167 146° Southeast 173 199 2,400  Level New York TRACON
11:48AM 40.6667 -73.6333 75° East 247 284 5,200 2,880 Climbing New York TRACON
11:49AM 40.3604 -73.5167 180° South  Level FlightAware Approximate
11:50AM 40.2751 -73.4376 159° South  Level FlightAware Approximate
11:50AM 40.5442 -73.5294 147° Southeast 266 306 11,700  Level New York Center
11:51AM 40.1902 -73.3449 146° Southeast  Level FlightAware Approximate
11:51AM 40.4739 -73.4994 162° South 272 313 12,200  Level New York Center
11:52AM 40.0971 -73.2622 146° Southeast  Level FlightAware Approximate
11:52AM 40.4100 -73.4722 162° South 272 313 14,600  Level New York Center
11:54AM 40.2250 -73.4206 168° South 304 350 17,900 1,800 Climbing Washington Center
11:55AM 40.1242 -73.4942 209° Southwest 349 402 20,400 2,160 Climbing Washington Center
11:56AM 40.0381 -73.5619 211° Southwest 396 456 22,300 1,320 Climbing Washington Center
11:57AM 39.9472 -73.6267 209° Southwest 368 423 23,000 360 Climbing Washington Center
11:58AM 39.8525 -73.6942 209° Southwest 380 437 23,100 900 Climbing Washington Center
11:59AM 39.7619 -73.7642 211° Southwest 380 437 24,900 1,560 Climbing Washington Center
12:00PM 39.6672 -73.8311 209° Southwest 380 437 26,300 1,320 Climbing Washington Center
12:01PM 39.5722 -73.9008 210° Southwest 390 449 27,600 1,140 Climbing Washington Center
12:02PM 39.4733 -73.9731 209° Southwest 396 456 28,600 840 Climbing Washington Center
12:03PM 39.3867 -74.0422 212° Southwest 406 467 29,300 900 Climbing Washington Center
12:04PM 39.2942 -74.1461 221° Southwest 425 489 30,500 1,500 Climbing Washington Center
12:05PM 39.2058 -74.2442 221° Southwest 430 495 32,300 1,260 Climbing Washington Center
12:06PM 39.1150 -74.3422 220° Southwest 430 495 33,100 840 Climbing Washington Center
12:07PM 39.0264 -74.4372 220° Southwest 430 495 34,000 780 Climbing Washington Center
12:08PM 38.9356 -74.5375 221° Southwest 430 495 34,700 960 Climbing Washington Center
12:09PM 38.8447 -74.6347 220° Southwest 430 495 36,000 600 Climbing Washington Center
12:10PM 38.7558 -74.7292 220° Southwest 425 489 36,000  Level Washington Center
12:11PM 38.6689 -74.8233 220° Southwest 425 489 36,000 -60 Level Washington Center
12:12PM 38.5778 -74.9144 218° Southwest 425 489 35,900  Descending Washington Center
12:13PM 38.4781 -74.9922 211° Southwest 425 489 36,000  Climbing Washington Center
12:14PM 38.3764 -75.0672 210° Southwest 425 489 36,000 -60 Level Washington Center
12:15PM 38.2661 -75.1475 210° Southwest 425 489 35,900  Descending Washington Center
12:16PM 38.1664 -75.2247 211° Southwest 425 489 36,000  Climbing Washington Center
12:17PM 38.0644 -75.3017 211° Southwest 425 489 36,000  Level Washington Center
12:18PM 37.9581 -75.3758 209° Southwest 425 489 36,000  Level Washington Center
12:19PM 37.8581 -75.4497 210° Southwest 430 495 36,000  Level Washington Center
12:20PM 37.7539 -75.5289 211° Southwest 430 495 36,000  Level Washington Center
12:21PM 37.6497 -75.6022 209° Southwest 430 495 36,000  Level Washington Center
12:22PM 37.5475 -75.6731 209° Southwest 430 495 36,000 -60 Level Washington Center
12:23PM 37.4453 -75.7489 211° Southwest 425 489 35,900  Descending Washington Center
12:24PM 37.3450 -75.8217 210° Southwest 425 489 36,000  Climbing Washington Center
12:25PM 37.2425 -75.8944 209° Southwest 425 489 35,900 -60 Descending Washington Center
12:26PM 37.1400 -75.9669 209° Southwest 425 489 35,900  Level Washington Center
12:27PM 37.0378 -76.0419 210° Southwest 425 489 36,000  Climbing Washington Center
12:28PM 36.9372 -76.1064 207° Southwest 425 489 36,000  Level Washington Center
12:29PM 36.8325 -76.1811 210° Southwest 435 501 36,000  Level Washington Center
12:30PM 36.7258 -76.2581 210° Southwest 440 506 36,000  Level Washington Center
12:31PM 36.6106 -76.3397 210° Southwest 440 506 36,000  Level Washington Center
12:32PM 36.5036 -76.4164 210° Southwest 440 506 36,000  Level Washington Center
12:33PM 36.3989 -76.4875 209° Southwest 440 506 36,000 -60 Level Washington Center
12:34PM 36.2961 -76.5583 209° Southwest 440 506 35,900 -60 Descending Washington Center
12:35PM 36.1911 -76.6292 209° Southwest 440 506 35,900  Level Washington Center
12:36PM 36.0883 -76.7025 210° Southwest 440 506 35,900  Level Washington Center
12:37PM 35.9833 -76.7753 209° Southwest 440 506 36,000  Climbing Washington Center
12:38PM 35.8889 -76.8381 208° Southwest 440 506 36,000  Level Washington Center
12:39PM 35.7836 -76.9106 209° Southwest 440 506 36,000  Level Washington Center
12:40PM 35.6786 -76.9806 208° Southwest 440 506 36,000  Level Washington Center
12:41PM 35.5797 -77.0528 211° Southwest 434 499 36,000  Level Washington Center
12:42PM 35.4722 -77.1247 209° Southwest 429 494 36,000  Level Washington Center
12:43PM 35.3692 -77.1942 209° Southwest 429 494 36,000  Level Washington Center
12:44PM 35.2658 -77.2658 210° Southwest 429 494 36,000  Level Washington Center
12:45PM 35.1606 -77.3350 208° Southwest 429 494 36,000  Level Washington Center
12:46PM 35.0575 -77.4011 208° Southwest 429 494 36,000  Level Washington Center
12:47PM 34.9519 -77.4747 210° Southwest 429 494 36,000  Level Washington Center
12:48PM 34.8486 -77.5433 209° Southwest 429 494 36,000  Level Washington Center
12:49PM 34.7472 -77.6167 211° Southwest 429 494 36,000  Level Washington Center
12:50PM 34.6439 -77.6847 208° Southwest 424 488 36,000  Level Washington Center
12:51PM 34.5403 -77.7528 208° Southwest 424 488 36,000  Level Washington Center
12:52PM 34.4369 -77.8206 208° Southwest 424 488 36,000  Level Washington Center
12:53PM 34.3336 -77.8806 206° Southwest 424 488 36,000  Level Washington Center
12:55PM 34.1147 -77.9417 193° South 424 488 36,000  Level Jacksonville Center
12:56PM 34.0014 -77.9731 193° South 436 502 36,000  Level Jacksonville Center
12:57PM 33.8858 -78.0094 195° South 431 496 36,000  Level Jacksonville Center
12:58PM 33.7747 -78.0456 195° South 429 494 36,000 -60 Level Jacksonville Center
12:59PM 33.6714 -78.0714 192° South 429 494 35,900 -60 Descending Jacksonville Center
01:00PM 33.5597 -78.1022 193° South 429 494 35,900  Level Jacksonville Center
01:01PM 33.4483 -78.1358 194° South 429 494 36,000  Climbing Jacksonville Center
01:02PM 33.3328 -78.1667 193° South 424 488 36,000  Level Jacksonville Center
01:03PM 33.2211 -78.2000 194° South 424 488 36,000  Level Jacksonville Center
01:04PM 33.1075 -78.2283 192° South 424 488 36,000  Level Jacksonville Center
01:05PM 32.9961 -78.2614 194° South 424 488 36,000  Level Jacksonville Center
01:06PM 32.8803 -78.2919 192° South 429 494 36,000  Level Jacksonville Center
01:07PM 32.7686 -78.3225 193° South 429 494 36,000  Level Jacksonville Center
01:08PM 32.6572 -78.3553 194° South 429 494 36,000 -60 Level Jacksonville Center
01:09PM 32.5456 -78.3853 193° South 429 494 35,900  Descending Jacksonville Center
01:10PM 32.4339 -78.4131 192° South 424 488 36,000  Climbing Jacksonville Center
01:11PM 32.3267 -78.4528 197° South 414 476 36,000  Level Jacksonville Center
01:12PM 32.2131 -78.4878 195° South 414 476 36,000  Level Jacksonville Center
01:13PM 32.1036 -78.5200 194° South 414 476 36,000 -60 Level Jacksonville Center
01:14PM 31.9900 -78.5522 194° South 414 476 35,900  Descending Jacksonville Center
01:15PM 31.8803 -78.5844 194° South 414 476 36,000  Climbing Jacksonville Center
01:16PM 31.7728 -78.6139 193° South 409 471 36,000  Level Jacksonville Center
01:17PM 31.6633 -78.6458 194° South 409 471 36,000 -60 Level Jacksonville Center
01:18PM 31.5558 -78.6775 194° South 409 471 35,900  Descending Jacksonville Center
01:19PM 31.4461 -78.7092 194° South 409 471 36,000  Climbing Jacksonville Center
01:20PM 31.3367 -78.7408 194° South 409 471 36,000 -60 Level Jacksonville Center
01:21PM 31.2289 -78.7700 193° South 414 476 35,900  Descending Jacksonville Center
01:22PM 31.1175 -78.8064 196° South 414 476 36,000  Climbing Jacksonville Center
01:23PM 30.9994 -78.8356 192° South 409 471 36,000  Level Jacksonville Center
01:24PM 30.8856 -78.8647 192° South 418 481 36,000  Level Jacksonville Center
01:25PM 30.7781 -78.8983 195° South 411 473 36,000  Level Jacksonville Center
01:26PM 30.6661 -78.9272 193° South 416 479 36,000  Level Jacksonville Center
01:27PM 30.5378 -78.9625 193° South 412 474 36,000 -60 Level Miami Center
01:28PM 30.4289 -78.9939 194° South 412 474 35,900  Descending Miami Center
01:29PM 30.3219 -79.0397 200° South 411 473 36,000  Climbing Miami Center
01:30PM 30.2108 -79.0856 200° South 411 473 36,000  Level Miami Center
01:31PM 30.1058 -79.1336 202° Southwest 411 473 36,000  Level Miami Center
01:32PM 30.0008 -79.1842 203° Southwest 411 473 36,000  Level Miami Center
01:33PM 29.8936 -79.2344 202° Southwest 416 479 36,000  Level Miami Center
01:34PM 29.7886 -79.2800 201° Southwest 421 484 36,000  Level Miami Center
01:35PM 29.6794 -79.3253 200° South 415 478 36,000  Level Miami Center
01:36PM 29.5722 -79.3706 200° South 415 478 36,000  Level Miami Center
01:37PM 29.4650 -79.4206 202° Southwest 420 483 36,000 -180 Level Miami Center
01:38PM 29.3558 -79.4633 199° South 413 475 35,700 -1,200 Descending Miami Center
01:39PM 29.2486 -79.5131 202° Southwest 413 475 33,600 -2,160 Descending Miami Center
01:40PM 29.1594 -79.5844 215° Southwest 409 471 31,400 -2,280 Descending Miami Center
01:41PM 29.0847 -79.6753 227° Southwest 392 451 29,100 -2,280 Descending Miami Center
01:42PM 29.0325 -79.7808 241° Southwest 385 443 26,900 -2,220 Descending Miami Center
01:43PM 28.9947 -79.8914 249° West 379 436 24,700 -2,220 Descending Miami Center
01:44PM 28.9631 -80.0067 253° West 379 436 22,500 -2,160 Descending Miami Center
01:45PM 28.9272 -80.1122 249° West 374 430 20,400 -2,220 Descending Miami Center
01:48PM 28.8500 -80.3833 252° West 342 394 14,700 -1,800 Descending Orlando TRACON
01:49PM 28.8167 -80.4833 249° West 327 376 14,000 -720 Descending Orlando TRACON
01:50PM 28.8000 -80.6000 261° West 328 377 13,300 -1,500 Descending Orlando TRACON
01:51PM 28.8000 -80.7000 270° West 321 369 11,100 -1,680 Descending Orlando TRACON
01:52PM 28.7833 -80.7833 257° West 304 350 10,000 -540 Descending Orlando TRACON
01:53PM 28.7667 -80.8833 259° West 270 311 10,000 -300 Level Orlando TRACON
01:54PM 28.7500 -80.9667 257° West 265 305 9,400 -1,200 Descending Orlando TRACON
01:55PM 28.7500 -81.0333 270° West 256 295 7,800 -1,800 Descending Orlando TRACON
01:56PM 28.7333 -81.1000 254° West 235 270 6,200 -1,740 Descending Orlando TRACON
01:57PM 28.6833 -81.1833 236° Southwest 229 264 4,200 -1,140 Descending Orlando TRACON
01:58PM 28.6667 -81.2500 254° West 238 274 3,800 -720 Descending Orlando TRACON
01:59PM 28.6333 -81.3000 233° Southwest 237 273 3,000 -660 Descending Orlando TRACON
02:00PM 28.5667 -81.3167 192° South 204 235 2,600 -720 Descending Orlando TRACON
02:01PM 28.5167 -81.3333 196° South 163 188 1,500 -900 Descending Orlando TRACON
02:02PM 28.4833 -81.3333 180° South 131 151 900 -660 Descending Orlando TRACON
02:02PM 28.4667 -81.3333 180° South 131 151 600 -660 Descending Orlando TRACON